Time;durP1;ratioP1;P1;durP2;ratioP2;P2;SDS_P1;SDS_P2;PMS_P1;PMS_P2;Temp;Humidity;BMP_temperature;BMP_pressure;BME280_temperature;BME280_humidity;BME280_pressure;Samples;Min_cycle;Max_cycle;Signal;HPM_P1;HPM_P2
2022/10/18 00:02:03;;;;;;;5.6;3.8;;;;;;;;;;;;;
2022/10/18 00:04:32;;;;;;;4.9;3;;;;;;;;;;;;;
2022/10/18 00:06:59;;;;;;;5.1;3;;;;;;;;;;;;;
2022/10/18 00:09:24;;;;;;;4;2.4;;;;;;;;;;;;;
2022/10/18 00:11:49;;;;;;;3;2.3;;;;;;;;;;;;;
2022/10/18 00:14:15;;;;;;;4.4;2.3;;;;;;;;;;;;;
2022/10/18 00:16:40;;;;;;;4.1;2.6;;;;;;;;;;;;;
2022/10/18 00:19:08;;;;;;;3.8;2.3;;;;;;;;;;;;;
2022/10/18 00:21:33;;;;;;;6.2;2.7;;;;;;;;;;;;;
2022/10/18 00:24:13;;;;;;;3.8;2.2;;;;;;;;;;;;;
2022/10/18 00:26:38;;;;;;;3.3;2.2;;;;;;;;;;;;;
2022/10/18 00:29:03;;;;;;;3.9;1.9;;;;;;;;;;;;;
2022/10/18 00:31:30;;;;;;;3.2;2.1;;;;;;;;;;;;;
2022/10/18 00:33:55;;;;;;;3.1;2.1;;;;;;;;;;;;;
2022/10/18 00:36:23;;;;;;;3;2.2;;;;;;;;;;;;;
2022/10/18 00:38:48;;;;;;;2.8;2;;;;;;;;;;;;;
2022/10/18 00:41:16;;;;;;;3.4;1.9;;;;;;;;;;;;;
2022/10/18 00:43:41;;;;;;;3.5;2.1;;;;;;;;;;;;;
2022/10/18 00:46:07;;;;;;;6.9;2.6;;;;;;;;;;;;;
2022/10/18 00:48:32;;;;;;;3.7;2.1;;;;;;;;;;;;;
2022/10/18 00:50:57;;;;;;;6.6;2.4;;;;;;;;;;;;;
2022/10/18 00:53:23;;;;;;;3.6;2.1;;;;;;;;;;;;;
2022/10/18 00:55:48;;;;;;;2.8;2.1;;;;;;;;;;;;;
2022/10/18 00:58:13;;;;;;;4;2.2;;;;;;;;;;;;;
2022/10/18 01:00:40;;;;;;;3.6;2.1;;;;;;;;;;;;;
2022/10/18 01:03:06;;;;;;;2.7;2.1;;;;;;;;;;;;;
2022/10/18 01:05:40;;;;;;;4.1;2.2;;;;;;;;;;;;;
2022/10/18 01:08:05;;;;;;;6.9;2.7;;;;;;;;;;;;;
2022/10/18 01:10:30;;;;;;;3.4;2.4;;;;;;;;;;;;;
2022/10/18 01:12:55;;;;;;;4.2;2.5;;;;;;;;;;;;;
2022/10/18 01:15:33;;;;;;;3.3;2.1;;;;;;;;;;;;;
2022/10/18 01:17:58;;;;;;;5.4;2.2;;;;;;;;;;;;;
2022/10/18 01:20:23;;;;;;;3.3;2.4;;;;;;;;;;;;;
2022/10/18 01:22:48;;;;;;;3.7;2.5;;;;;;;;;;;;;
2022/10/18 01:25:13;;;;;;;4.9;2.4;;;;;;;;;;;;;
2022/10/18 01:27:48;;;;;;;3.6;2.3;;;;;;;;;;;;;
2022/10/18 01:30:13;;;;;;;6.1;2.4;;;;;;;;;;;;;
2022/10/18 01:32:38;;;;;;;3.2;2.2;;;;;;;;;;;;;
2022/10/18 01:35:03;;;;;;;3.3;2.5;;;;;;;;;;;;;
2022/10/18 01:37:31;;;;;;;6.1;2.5;;;;;;;;;;;;;
2022/10/18 01:39:58;;;;;;;3;2.3;;;;;;;;;;;;;
2022/10/18 01:42:23;;;;;;;3.8;2.6;;;;;;;;;;;;;
2022/10/18 01:44:49;;;;;;;3.1;2.1;;;;;;;;;;;;;
2022/10/18 01:47:14;;;;;;;3.4;2.4;;;;;;;;;;;;;
2022/10/18 01:49:39;;;;;;;3.8;2.5;;;;;;;;;;;;;
2022/10/18 01:52:07;;;;;;;4.8;2.6;;;;;;;;;;;;;
2022/10/18 01:54:32;;;;;;;7.4;2.5;;;;;;;;;;;;;
2022/10/18 01:57:02;;;;;;;3;2.2;;;;;;;;;;;;;
2022/10/18 01:59:27;;;;;;;5.8;2.4;;;;;;;;;;;;;
2022/10/18 02:01:52;;;;;;;3.4;2.3;;;;;;;;;;;;;
2022/10/18 02:04:17;;;;;;;2.7;2.2;;;;;;;;;;;;;
2022/10/18 02:06:42;;;;;;;3.7;2.5;;;;;;;;;;;;;
2022/10/18 02:09:08;;;;;;;4.5;2.3;;;;;;;;;;;;;
2022/10/18 02:11:33;;;;;;;3.7;2.1;;;;;;;;;;;;;
2022/10/18 02:13:58;;;;;;;4.8;2.3;;;;;;;;;;;;;
2022/10/18 02:16:23;;;;;;;2.8;1.9;;;;;;;;;;;;;
2022/10/18 02:18:48;;;;;;;3.5;2.1;;;;;;;;;;;;;
2022/10/18 02:21:14;;;;;;;4.8;2;;;;;;;;;;;;;
2022/10/18 02:23:39;;;;;;;3;2.4;;;;;;;;;;;;;
2022/10/18 02:26:04;;;;;;;4.5;2.4;;;;;;;;;;;;;
2022/10/18 02:28:30;;;;;;;3.7;2.5;;;;;;;;;;;;;
2022/10/18 02:31:09;;;;;;;4;2.3;;;;;;;;;;;;;
2022/10/18 02:33:35;;;;;;;4.3;2.8;;;;;;;;;;;;;
2022/10/18 02:35:59;;;;;;;6.7;2.3;;;;;;;;;;;;;
2022/10/18 02:38:25;;;;;;;4;2.3;;;;;;;;;;;;;
2022/10/18 02:40:50;;;;;;;3.1;2.3;;;;;;;;;;;;;
2022/10/18 02:43:15;;;;;;;2.6;2.2;;;;;;;;;;;;;
2022/10/18 02:45:40;;;;;;;3.2;2.1;;;;;;;;;;;;;
2022/10/18 02:48:05;;;;;;;3.8;2.3;;;;;;;;;;;;;
2022/10/18 02:50:30;;;;;;;3.3;2.3;;;;;;;;;;;;;
2022/10/18 02:52:55;;;;;;;4;2.5;;;;;;;;;;;;;
2022/10/18 02:55:22;;;;;;;3.8;2.1;;;;;;;;;;;;;
2022/10/18 02:57:47;;;;;;;4.1;2.5;;;;;;;;;;;;;
2022/10/18 03:00:14;;;;;;;3;2.2;;;;;;;;;;;;;
2022/10/18 03:02:40;;;;;;;2.6;2.1;;;;;;;;;;;;;
2022/10/18 03:05:11;;;;;;;4.3;2.3;;;;;;;;;;;;;
2022/10/18 03:07:38;;;;;;;4.5;2.2;;;;;;;;;;;;;
2022/10/18 03:10:03;;;;;;;3.1;2.2;;;;;;;;;;;;;
2022/10/18 03:12:29;;;;;;;5;2.2;;;;;;;;;;;;;
2022/10/18 03:14:54;;;;;;;6.9;2.3;;;;;;;;;;;;;
2022/10/18 03:17:20;;;;;;;4.7;2.3;;;;;;;;;;;;;
2022/10/18 03:19:45;;;;;;;4.3;2.2;;;;;;;;;;;;;
2022/10/18 03:22:10;;;;;;;4.8;2.4;;;;;;;;;;;;;
2022/10/18 03:24:36;;;;;;;3.6;2.2;;;;;;;;;;;;;
2022/10/18 03:27:01;;;;;;;2.8;2.1;;;;;;;;;;;;;
2022/10/18 03:29:26;;;;;;;3.1;2;;;;;;;;;;;;;
2022/10/18 03:31:52;;;;;;;3.1;2;;;;;;;;;;;;;
2022/10/18 03:34:18;;;;;;;2.7;2.2;;;;;;;;;;;;;
2022/10/18 03:36:43;;;;;;;2.9;2.4;;;;;;;;;;;;;
2022/10/18 03:39:08;;;;;;;3.3;2.3;;;;;;;;;;;;;
2022/10/18 03:41:35;;;;;;;3.8;2.6;;;;;;;;;;;;;
2022/10/18 03:44:00;;;;;;;4.5;2.6;;;;;;;;;;;;;
2022/10/18 03:46:26;;;;;;;6.9;3.4;;;;;;;;;;;;;
2022/10/18 03:48:51;;;;;;;11.7;4.7;;;;;;;;;;;;;
2022/10/18 03:51:17;;;;;;;5.5;3.2;;;;;;;;;;;;;
2022/10/18 03:53:42;;;;;;;3.5;2.9;;;;;;;;;;;;;
2022/10/18 03:56:09;;;;;;;4.8;3.4;;;;;;;;;;;;;
2022/10/18 03:58:34;;;;;;;3.4;2.5;;;;;;;;;;;;;
2022/10/18 04:02:37;;;;;;;4.4;2.8;;;;;;;10.62;85.76172;947.844;;;;
2022/10/18 04:05:03;;;;;;;3.6;2.5;;;;;;;10.65;85.51758;947.832;;;;
2022/10/18 04:07:31;;;;;;;4.4;2.9;;;;;;;10.67;85.56738;947.8635;;;;
2022/10/18 04:12:34;;;;;;;5;2.7;;;;;;;10.65;85.76953;947.9012;;;;
2022/10/18 04:15:00;;;;;;;4.3;2.6;;;;;;;10.69;85.63965;947.9628;;;;
2022/10/18 04:17:25;;;;;;;5.7;2.8;;;;;;;10.71;85.25488;947.9623;;;;
2022/10/18 04:19:54;;;;;;;4;2.7;;;;;;;10.73;84.94922;947.9677;;;;
2022/10/18 04:22:22;;;;;;;4.8;3.1;;;;;;;10.67;85.41895;948.0212;;;;
2022/10/18 04:24:52;;;;;;;3.9;2.6;;;;;;;10.67;85.37305;948.0508;;;;
2022/10/18 04:27:20;;;;;;;5.3;3;;;;;;;10.66;85.59961;948.0114;;;;
2022/10/18 04:29:53;;;;;;;5.3;3.4;;;;;;;10.53;86.69336;947.9927;;;;
2022/10/18 04:32:23;;;;;;;4.7;2.9;;;;;;;10.61;86.11426;947.9131;;;;
2022/10/18 04:34:47;;;;;;;3.9;2.7;;;;;;;10.67;86.0127;947.9832;;;;
2022/10/18 04:42:52;;;;;;;3.2;2.8;;;;;;;10.62;86.25293;947.9308;;;;
2022/10/18 04:45:17;;;;;;;5.2;2.9;;;;;;;10.66;85.54297;947.8912;;;;
2022/10/18 04:47:45;;;;;;;5.5;3;;;;;;;10.78;84.9834;947.9793;;;;
2022/10/18 04:50:10;;;;;;;4.9;2.6;;;;;;;10.71;84.93652;947.8837;;;;
2022/10/18 04:52:39;;;;;;;3.8;2.7;;;;;;;10.82;84.64746;947.9169;;;;
2022/10/18 04:55:04;;;;;;;3.4;2.6;;;;;;;10.89;84.41016;947.885;;;;
2022/10/18 04:57:31;;;;;;;5.7;2.7;;;;;;;10.87;84.26953;947.9379;;;;
2022/10/18 04:59:56;;;;;;;3.9;2.8;;;;;;;10.92;84.2666;947.928;;;;
2022/10/18 05:02:25;;;;;;;5.6;2.9;;;;;;;10.98;84.13281;947.9216;;;;
2022/10/18 05:04:50;;;;;;;4.8;3;;;;;;;10.84;84.73242;947.9601;;;;
2022/10/18 05:07:19;;;;;;;5;3.4;;;;;;;10.85;84.88086;947.9755;;;;
2022/10/18 05:09:44;;;;;;;4.6;3.7;;;;;;;10.83;85.08301;948.0444;;;;
2022/10/18 05:12:12;;;;;;;5.7;3.8;;;;;;;10.83;84.98242;948.0055;;;;
2022/10/18 05:14:37;;;;;;;5.9;3.7;;;;;;;10.78;85.1543;947.9434;;;;
2022/10/18 05:17:02;;;;;;;5;3.9;;;;;;;10.86;84.69043;947.8986;;;;
2022/10/18 05:19:31;;;;;;;8;3.8;;;;;;;10.92;84.64453;947.9041;;;;
2022/10/18 05:21:57;;;;;;;7.6;4.1;;;;;;;11.06;84.39746;947.8533;;;;
2022/10/18 05:24:25;;;;;;;14.4;7.6;;;;;;;11.01;83.94336;947.8814;;;;
2022/10/18 05:26:50;;;;;;;13.6;7.3;;;;;;;10.95;84.35547;947.8379;;;;
2022/10/18 05:29:17;;;;;;;17;10.2;;;;;;;10.82;85.03809;947.8014;;;;
2022/10/18 05:31:42;;;;;;;5.2;3.6;;;;;;;10.74;85.66113;947.866;;;;
2022/10/18 05:34:10;;;;;;;5.4;3.5;;;;;;;10.91;85.25977;947.7961;;;;
2022/10/18 05:36:35;;;;;;;9.8;3.8;;;;;;;10.98;85.11523;947.8489;;;;
2022/10/18 05:39:03;;;;;;;9.5;4;;;;;;;10.93;85.44727;947.8022;;;;
2022/10/18 05:41:28;;;;;;;6.6;3.7;;;;;;;10.77;86.66992;947.916;;;;
2022/10/18 05:43:57;;;;;;;8.1;4.3;;;;;;;10.73;87.27051;947.9725;;;;
2022/10/18 05:46:22;;;;;;;8.7;4.4;;;;;;;10.8;87.16895;947.9462;;;;
2022/10/18 05:48:50;;;;;;;6;3.2;;;;;;;10.85;86.85938;947.9025;;;;
2022/10/18 05:51:15;;;;;;;6.1;3.3;;;;;;;10.99;86.21484;947.9654;;;;
2022/10/18 05:53:40;;;;;;;6.4;3.3;;;;;;;11.14;85.81055;948.0186;;;;
2022/10/18 05:56:10;;;;;;;12.8;4.1;;;;;;;11.26;85.25977;948.0432;;;;
2022/10/18 05:58:33;;;;;;;17.5;9.3;;;;;;;;;;;;;
2022/10/18 06:00:58;;;;;;;35.5;20.2;;;;;;;;;;;;;
2022/10/18 06:03:26;;;;;;;23.6;11.9;;;;;;;;;;;;;
2022/10/18 06:05:50;;;;;;;23.4;15;;;;;;;;;;;;;
2022/10/18 06:08:15;;;;;;;27.5;16.2;;;;;;;;;;;;;
2022/10/18 06:10:40;;;;;;;9.3;4.8;;;;;;;;;;;;;
2022/10/18 06:13:06;;;;;;;5.5;3.7;;;;;;;;;;;;;
2022/10/18 06:15:34;;;;;;;5.2;3.5;;;;;;;;;;;;;
2022/10/18 06:18:01;;;;;;;6.8;3.5;;;;;;;;;;;;;
2022/10/18 06:20:26;;;;;;;4.7;3.3;;;;;;;;;;;;;
2022/10/18 06:22:52;;;;;;;5.5;2.7;;;;;;;;;;;;;
2022/10/18 06:25:17;;;;;;;6.5;2.9;;;;;;;;;;;;;
2022/10/18 06:27:43;;;;;;;6.6;3.1;;;;;;;;;;;;;
2022/10/18 06:30:09;;;;;;;5.3;3.3;;;;;;;;;;;;;
2022/10/18 06:32:34;;;;;;;5.9;3.6;;;;;;;;;;;;;
2022/10/18 06:34:59;;;;;;;7.5;3.9;;;;;;;;;;;;;
2022/10/18 06:37:24;;;;;;;8.2;3.6;;;;;;;;;;;;;
2022/10/18 06:39:49;;;;;;;7.6;3.6;;;;;;;;;;;;;
2022/10/18 06:42:15;;;;;;;6.6;3.9;;;;;;;;;;;;;
2022/10/18 06:44:40;;;;;;;14.4;3.9;;;;;;;;;;;;;
2022/10/18 06:47:06;;;;;;;6.6;3.7;;;;;;;;;;;;;
2022/10/18 06:49:31;;;;;;;7;4.2;;;;;;;;;;;;;
2022/10/18 06:51:57;;;;;;;10.7;5.1;;;;;;;;;;;;;
2022/10/18 06:54:22;;;;;;;8;4.6;;;;;;;;;;;;;
2022/10/18 06:56:49;;;;;;;7.8;3.7;;;;;;;;;;;;;
2022/10/18 06:59:14;;;;;;;8.6;3.3;;;;;;;;;;;;;
2022/10/18 07:01:39;;;;;;;6.1;3.1;;;;;;;;;;;;;
2022/10/18 07:04:04;;;;;;;5.7;3.4;;;;;;;;;;;;;
2022/10/18 07:06:31;;;;;;;4.1;2.8;;;;;;;;;;;;;
2022/10/18 07:08:56;;;;;;;4.7;2.9;;;;;;;;;;;;;
2022/10/18 07:11:24;;;;;;;5.4;3.1;;;;;;;;;;;;;
2022/10/18 07:13:48;;;;;;;4.4;3.1;;;;;;;;;;;;;
2022/10/18 07:16:15;;;;;;;4.3;2.8;;;;;;;;;;;;;
2022/10/18 07:18:40;;;;;;;5.6;2.4;;;;;;;;;;;;;
2022/10/18 07:21:06;;;;;;;6.8;2.6;;;;;;;;;;;;;
2022/10/18 07:23:31;;;;;;;6;2.6;;;;;;;;;;;;;
2022/10/18 07:25:57;;;;;;;6.6;2.2;;;;;;;;;;;;;
2022/10/18 07:28:22;;;;;;;5;2.7;;;;;;;;;;;;;
2022/10/18 07:30:47;;;;;;;3.9;2.6;;;;;;;;;;;;;
2022/10/18 07:33:12;;;;;;;6.3;2.9;;;;;;;;;;;;;
2022/10/18 07:35:38;;;;;;;4.1;2.6;;;;;;;;;;;;;
2022/10/18 07:38:05;;;;;;;4.5;2.7;;;;;;;;;;;;;
2022/10/18 07:40:30;;;;;;;3.8;2.4;;;;;;;;;;;;;
2022/10/18 07:42:56;;;;;;;5.3;2.7;;;;;;;;;;;;;
2022/10/18 07:45:21;;;;;;;4.5;2.7;;;;;;;;;;;;;
2022/10/18 07:47:49;;;;;;;3.1;2.5;;;;;;;;;;;;;
2022/10/18 07:50:14;;;;;;;3.2;2.3;;;;;;;;;;;;;
2022/10/18 07:52:40;;;;;;;3.8;2.5;;;;;;;;;;;;;
2022/10/18 07:55:05;;;;;;;4.8;2.8;;;;;;;;;;;;;
2022/10/18 07:57:32;;;;;;;3.7;2.9;;;;;;;;;;;;;
2022/10/18 07:59:57;;;;;;;3.4;2.7;;;;;;;;;;;;;
2022/10/18 08:02:22;;;;;;;5.9;2.5;;;;;;;;;;;;;
2022/10/18 08:04:47;;;;;;;4.3;2.2;;;;;;;;;;;;;
2022/10/18 08:07:14;;;;;;;3.6;2.3;;;;;;;;;;;;;
2022/10/18 08:09:39;;;;;;;3.9;2.4;;;;;;;;;;;;;
2022/10/18 08:12:04;;;;;;;3.5;2.1;;;;;;;;;;;;;
2022/10/18 08:14:30;;;;;;;2.4;2;;;;;;;;;;;;;
2022/10/18 08:16:55;;;;;;;2.5;2.3;;;;;;;;;;;;;
2022/10/18 08:19:21;;;;;;;3.1;2;;;;;;;;;;;;;
2022/10/18 08:22:21;;;;;;;4.3;2.3;;;;;;;;;;;;;
2022/10/18 08:24:37;;;;;;;3.3;2;;;;;;;;;;;;;
2022/10/18 08:27:02;;;;;;;4;2.1;;;;;;;;;;;;;
2022/10/18 08:29:28;;;;;;;4.2;1.9;;;;;;;;;;;;;
2022/10/18 08:31:53;;;;;;;2.1;1.9;;;;;;;;;;;;;
2022/10/18 08:34:19;;;;;;;2.7;2.2;;;;;;;;;;;;;
2022/10/18 08:36:45;;;;;;;9.5;3.5;;;;;;;;;;;;;
2022/10/18 08:39:10;;;;;;;3.4;2.1;;;;;;;;;;;;;
2022/10/18 08:41:35;;;;;;;3.8;2.4;;;;;;;;;;;;;
2022/10/18 08:44:00;;;;;;;3.1;2.2;;;;;;;;;;;;;
2022/10/18 08:46:25;;;;;;;3.1;2.3;;;;;;;;;;;;;
2022/10/18 08:48:51;;;;;;;2.8;2.3;;;;;;;;;;;;;
2022/10/18 08:51:16;;;;;;;6;2.4;;;;;;;;;;;;;
2022/10/18 08:53:44;;;;;;;4.2;2.4;;;;;;;;;;;;;
2022/10/18 08:56:13;;;;;;;3.9;2.1;;;;;;;;;;;;;
2022/10/18 08:58:46;;;;;;;2.4;2.2;;;;;;;;;;;;;
2022/10/18 09:01:11;;;;;;;2.6;2.2;;;;;;;;;;;;;
2022/10/18 09:03:36;;;;;;;2.8;2.3;;;;;;;;;;;;;
2022/10/18 09:06:01;;;;;;;4.8;2.4;;;;;;;;;;;;;
2022/10/18 09:08:26;;;;;;;3.2;2.3;;;;;;;;;;;;;
2022/10/18 09:10:53;;;;;;;3.5;2.3;;;;;;;;;;;;;
2022/10/18 09:13:18;;;;;;;2.5;2.1;;;;;;;;;;;;;
2022/10/18 09:15:43;;;;;;;3.8;2.2;;;;;;;;;;;;;
2022/10/18 09:18:09;;;;;;;5.2;2.4;;;;;;;;;;;;;
2022/10/18 09:20:34;;;;;;;2.8;2.1;;;;;;;;;;;;;
2022/10/18 09:23:00;;;;;;;4.4;2.6;;;;;;;;;;;;;
2022/10/18 09:25:25;;;;;;;3.7;2.4;;;;;;;;;;;;;
2022/10/18 09:27:51;;;;;;;5.3;2.6;;;;;;;;;;;;;
2022/10/18 09:30:16;;;;;;;5.3;2.8;;;;;;;;;;;;;
2022/10/18 09:32:41;;;;;;;2.6;2.2;;;;;;;;;;;;;
2022/10/18 09:35:07;;;;;;;4.7;2.5;;;;;;;;;;;;;
2022/10/18 09:37:32;;;;;;;5.9;2.7;;;;;;;;;;;;;
2022/10/18 09:39:58;;;;;;;3.5;2.6;;;;;;;;;;;;;
2022/10/18 09:42:25;;;;;;;5.9;2.6;;;;;;;;;;;;;
2022/10/18 09:44:49;;;;;;;3.3;2.2;;;;;;;;;;;;;
2022/10/18 09:47:14;;;;;;;3.4;2.8;;;;;;;;;;;;;
2022/10/18 09:49:39;;;;;;;4.5;3.3;;;;;;;;;;;;;
2022/10/18 09:52:06;;;;;;;5.4;3.3;;;;;;;;;;;;;
2022/10/18 09:54:31;;;;;;;4.7;2.7;;;;;;;;;;;;;
2022/10/18 09:56:57;;;;;;;3.6;2.8;;;;;;;;;;;;;
2022/10/18 09:59:49;;;;;;;2.9;2.6;;;;;;;;;;;;;
2022/10/18 10:02:16;;;;;;;2.8;2.5;;;;;;;;;;;;;
2022/10/18 10:04:54;;;;;;;5.6;2.7;;;;;;;;;;;;;
2022/10/18 10:07:18;;;;;;;2.3;2.1;;;;;;;;;;;;;
2022/10/18 10:09:43;;;;;;;2.3;2.1;;;;;;;;;;;;;
2022/10/18 10:12:12;;;;;;;3.2;2.2;;;;;;;;;;;;;
2022/10/18 10:14:37;;;;;;;4;2.1;;;;;;;;;;;;;
2022/10/18 10:17:02;;;;;;;2.8;2.1;;;;;;;;;;;;;
2022/10/18 10:19:27;;;;;;;4.2;2.3;;;;;;;;;;;;;
2022/10/18 10:21:53;;;;;;;4.8;2.4;;;;;;;;;;;;;
2022/10/18 10:24:18;;;;;;;3;2.2;;;;;;;;;;;;;
2022/10/18 10:26:44;;;;;;;3;2.6;;;;;;;;;;;;;
2022/10/18 10:29:09;;;;;;;3.7;2.3;;;;;;;;;;;;;
2022/10/18 10:31:37;;;;;;;4.2;2.2;;;;;;;;;;;;;
2022/10/18 10:34:02;;;;;;;3.6;2;;;;;;;;;;;;;
2022/10/18 10:36:28;;;;;;;2.8;2.2;;;;;;;;;;;;;
2022/10/18 10:38:53;;;;;;;5.3;2.6;;;;;;;;;;;;;
2022/10/18 10:41:19;;;;;;;3.3;2.2;;;;;;;;;;;;;
2022/10/18 10:43:45;;;;;;;3.4;2.1;;;;;;;;;;;;;
2022/10/18 10:46:10;;;;;;;2.8;2.3;;;;;;;;;;;;;
2022/10/18 10:48:35;;;;;;;2.8;2;;;;;;;;;;;;;
2022/10/18 10:51:00;;;;;;;3.9;2.2;;;;;;;;;;;;;
2022/10/18 10:53:25;;;;;;;5;2.2;;;;;;;;;;;;;
2022/10/18 10:55:51;;;;;;;2.4;2.1;;;;;;;;;;;;;
2022/10/18 10:58:16;;;;;;;2.9;2.2;;;;;;;;;;;;;
2022/10/18 11:00:43;;;;;;;4.5;2.3;;;;;;;;;;;;;
2022/10/18 11:03:08;;;;;;;3.4;2.1;;;;;;;;;;;;;
2022/10/18 11:05:34;;;;;;;3.8;2.3;;;;;;;;;;;;;
2022/10/18 11:08:00;;;;;;;5.2;2.5;;;;;;;;;;;;;
2022/10/18 11:10:25;;;;;;;3.7;2;;;;;;;;;;;;;
2022/10/18 11:12:50;;;;;;;3.5;2.2;;;;;;;;;;;;;
2022/10/18 11:15:18;;;;;;;3.1;2.4;;;;;;;;;;;;;
2022/10/18 11:17:43;;;;;;;4;2.4;;;;;;;;;;;;;
2022/10/18 11:20:08;;;;;;;2.7;2.1;;;;;;;;;;;;;
2022/10/18 11:22:44;;;;;;;4.1;2.3;;;;;;;;;;;;;
2022/10/18 11:25:11;;;;;;;2.4;2.2;;;;;;;;;;;;;
2022/10/18 11:27:37;;;;;;;2.5;2.3;;;;;;;;;;;;;
2022/10/18 11:30:02;;;;;;;5.3;2.2;;;;;;;;;;;;;
2022/10/18 11:32:31;;;;;;;4.9;2.5;;;;;;;;;;;;;
2022/10/18 11:35:07;;;;;;;5.1;2.5;;;;;;;;;;;;;
2022/10/18 11:37:32;;;;;;;3.7;2.4;;;;;;;;;;;;;
2022/10/18 11:39:58;;;;;;;4.5;2.9;;;;;;;;;;;;;
2022/10/18 11:42:23;;;;;;;4.7;2.4;;;;;;;;;;;;;
2022/10/18 11:44:49;;;;;;;3.3;2.2;;;;;;;;;;;;;
2022/10/18 11:47:15;;;;;;;4.1;2.5;;;;;;;;;;;;;
2022/10/18 11:49:40;;;;;;;4.1;2.3;;;;;;;;;;;;;
2022/10/18 11:52:07;;;;;;;3.1;2.5;;;;;;;;;;;;;
2022/10/18 11:54:32;;;;;;;4.2;2.2;;;;;;;;;;;;;
2022/10/18 11:56:57;;;;;;;9.9;2.2;;;;;;;;;;;;;
2022/10/18 11:59:22;;;;;;;2.5;2;;;;;;;;;;;;;
2022/10/18 12:01:47;;;;;;;5.3;2.1;;;;;;;;;;;;;
2022/10/18 12:04:13;;;;;;;2.1;1.9;;;;;;;;;;;;;
2022/10/18 12:06:38;;;;;;;3;1.8;;;;;;;;;;;;;
2022/10/18 12:09:03;;;;;;;2;1.8;;;;;;;;;;;;;
2022/10/18 12:11:28;;;;;;;2.1;1.7;;;;;;;;;;;;;
2022/10/18 12:13:55;;;;;;;3.3;2;;;;;;;;;;;;;
2022/10/18 12:16:20;;;;;;;3.8;1.8;;;;;;;;;;;;;
2022/10/18 12:18:45;;;;;;;2.6;1.8;;;;;;;;;;;;;
2022/10/18 12:21:11;;;;;;;3.5;1.6;;;;;;;;;;;;;
2022/10/18 12:23:36;;;;;;;3;2.1;;;;;;;;;;;;;
2022/10/18 12:26:03;;;;;;;2.5;1.7;;;;;;;;;;;;;
2022/10/18 12:28:28;;;;;;;2.5;1.8;;;;;;;;;;;;;
2022/10/18 12:30:54;;;;;;;2;1.7;;;;;;;;;;;;;
2022/10/18 12:33:22;;;;;;;3;1.9;;;;;;;;;;;;;
2022/10/18 12:35:46;;;;;;;1.8;1.7;;;;;;;;;;;;;
2022/10/18 12:38:12;;;;;;;2.4;1.8;;;;;;;;;;;;;
2022/10/18 12:40:37;;;;;;;2.6;1.8;;;;;;;;;;;;;
2022/10/18 12:43:04;;;;;;;3;1.7;;;;;;;;;;;;;
2022/10/18 12:45:31;;;;;;;2;1.8;;;;;;;;;;;;;
2022/10/18 12:47:54;;;;;;;2.4;2.1;;;;;;;;;;;;;
2022/10/18 12:50:19;;;;;;;3.3;1.9;;;;;;;;;;;;;
2022/10/18 12:52:44;;;;;;;3;2.3;;;;;;;;;;;;;
2022/10/18 12:55:11;;;;;;;3.6;1.9;;;;;;;;;;;;;
2022/10/18 12:57:35;;;;;;;2.8;1.7;;;;;;;;;;;;;
2022/10/18 13:00:00;;;;;;;3.6;2.1;;;;;;;;;;;;;
2022/10/18 13:02:25;;;;;;;2.8;1.9;;;;;;;;;;;;;
2022/10/18 13:04:50;;;;;;;2.8;1.9;;;;;;;;;;;;;
2022/10/18 13:07:17;;;;;;;3.2;1.9;;;;;;;;;;;;;
2022/10/18 13:09:44;;;;;;;2.4;1.9;;;;;;;;;;;;;
2022/10/18 13:12:09;;;;;;;2.5;1.9;;;;;;;;;;;;;
2022/10/18 13:14:35;;;;;;;4.6;2;;;;;;;;;;;;;
2022/10/18 13:16:59;;;;;;;2.2;1.8;;;;;;;;;;;;;
2022/10/18 13:19:24;;;;;;;3.8;2.3;;;;;;;;;;;;;
2022/10/18 13:21:49;;;;;;;3.1;1.9;;;;;;;;;;;;;
2022/10/18 13:24:14;;;;;;;3.7;1.8;;;;;;;;;;;;;
2022/10/18 13:26:39;;;;;;;2.3;1.6;;;;;;;;;;;;;
2022/10/18 13:29:04;;;;;;;3.6;2.1;;;;;;;;;;;;;
2022/10/18 13:31:30;;;;;;;2.9;1.7;;;;;;;;;;;;;
2022/10/18 13:33:55;;;;;;;2.3;1.8;;;;;;;;;;;;;
2022/10/18 13:36:20;;;;;;;2.6;1.6;;;;;;;;;;;;;
2022/10/18 13:38:48;;;;;;;3.1;1.9;;;;;;;;;;;;;
2022/10/18 13:41:12;;;;;;;3.2;1.7;;;;;;;;;;;;;
2022/10/18 13:43:37;;;;;;;2.6;1.8;;;;;;;;;;;;;
2022/10/18 13:46:03;;;;;;;2.3;1.7;;;;;;;;;;;;;
2022/10/18 13:48:28;;;;;;;3.8;2.2;;;;;;;;;;;;;
2022/10/18 13:50:53;;;;;;;2.4;1.8;;;;;;;;;;;;;
2022/10/18 13:53:36;;;;;;;4;1.8;;;;;;;;;;;;;
2022/10/18 13:56:02;;;;;;;2.8;1.9;;;;;;;;;;;;;
2022/10/18 13:58:28;;;;;;;2;1.8;;;;;;;;;;;;;
2022/10/18 14:00:53;;;;;;;3;1.8;;;;;;;;;;;;;
2022/10/18 14:03:18;;;;;;;4.7;1.6;;;;;;;;;;;;;
2022/10/18 14:05:45;;;;;;;3.7;1.9;;;;;;;;;;;;;
2022/10/18 14:08:10;;;;;;;4.6;1.9;;;;;;;;;;;;;
2022/10/18 14:10:38;;;;;;;2.8;2;;;;;;;;;;;;;
2022/10/18 14:13:04;;;;;;;4.3;2;;;;;;;;;;;;;
2022/10/18 14:15:33;;;;;;;6.4;2.1;;;;;;;;;;;;;
2022/10/18 14:17:58;;;;;;;3.4;2.1;;;;;;;;;;;;;
2022/10/18 14:20:23;;;;;;;4.3;2;;;;;;;;;;;;;
2022/10/18 14:22:48;;;;;;;4.3;2.4;;;;;;;;;;;;;
2022/10/18 14:25:14;;;;;;;3.8;2.4;;;;;;;;;;;;;
2022/10/18 14:27:41;;;;;;;4.6;2.2;;;;;;;;;;;;;
2022/10/18 14:30:06;;;;;;;4.9;2.3;;;;;;;;;;;;;
2022/10/18 14:32:33;;;;;;;2.2;1.8;;;;;;;;;;;;;
2022/10/18 14:34:58;;;;;;;4.2;2.2;;;;;;;;;;;;;
2022/10/18 14:37:23;;;;;;;3;2;;;;;;;;;;;;;
2022/10/18 14:39:48;;;;;;;4.1;2.2;;;;;;;;;;;;;
2022/10/18 14:42:13;;;;;;;4.8;2.2;;;;;;;;;;;;;
2022/10/18 14:44:39;;;;;;;4.9;2.4;;;;;;;;;;;;;
2022/10/18 14:47:05;;;;;;;3.7;2.4;;;;;;;;;;;;;
2022/10/18 14:49:32;;;;;;;5.8;2.5;;;;;;;;;;;;;
2022/10/18 14:51:57;;;;;;;4.4;2.4;;;;;;;;;;;;;
2022/10/18 14:54:22;;;;;;;4;2.4;;;;;;;;;;;;;
2022/10/18 14:56:47;;;;;;;6.6;2.5;;;;;;;;;;;;;
2022/10/18 14:59:14;;;;;;;6.1;2.7;;;;;;;;;;;;;
2022/10/18 15:01:40;;;;;;;8.9;3.4;;;;;;;;;;;;;
2022/10/18 15:04:04;;;;;;;7.6;3.3;;;;;;;;;;;;;
2022/10/18 15:06:29;;;;;;;12.3;3.7;;;;;;;;;;;;;
2022/10/18 15:08:54;;;;;;;8.8;3;;;;;;;;;;;;;
2022/10/18 15:11:20;;;;;;;10;3.4;;;;;;;;;;;;;
2022/10/18 15:13:45;;;;;;;18.9;9.5;;;;;;;;;;;;;
2022/10/18 15:16:11;;;;;;;10.8;4.4;;;;;;;;;;;;;
2022/10/18 15:18:36;;;;;;;11;3.9;;;;;;;;;;;;;
2022/10/18 15:21:03;;;;;;;8.8;3.2;;;;;;;;;;;;;
2022/10/18 15:23:30;;;;;;;7.2;3.4;;;;;;;;;;;;;
2022/10/18 15:25:55;;;;;;;9.5;3.4;;;;;;;;;;;;;
2022/10/18 15:28:21;;;;;;;6.7;3.2;;;;;;;;;;;;;
2022/10/18 15:30:46;;;;;;;11;3.1;;;;;;;;;;;;;
2022/10/18 15:33:11;;;;;;;7;3.1;;;;;;;;;;;;;
2022/10/18 15:35:36;;;;;;;8.6;3.7;;;;;;;;;;;;;
2022/10/18 15:38:02;;;;;;;6.5;3.5;;;;;;;;;;;;;
2022/10/18 15:40:28;;;;;;;7.5;3.4;;;;;;;;;;;;;
2022/10/18 15:42:53;;;;;;;9;3.4;;;;;;;;;;;;;
2022/10/18 15:45:18;;;;;;;7.4;3.6;;;;;;;;;;;;;
2022/10/18 15:47:45;;;;;;;8.4;3.8;;;;;;;;;;;;;
2022/10/18 15:50:10;;;;;;;6;3.2;;;;;;;;;;;;;
2022/10/18 15:52:35;;;;;;;7.9;3.1;;;;;;;;;;;;;
2022/10/18 15:55:00;;;;;;;10.6;3.5;;;;;;;;;;;;;
2022/10/18 15:57:25;;;;;;;7.6;3.5;;;;;;;;;;;;;
2022/10/18 15:59:52;;;;;;;7;3.5;;;;;;;;;;;;;
2022/10/18 16:02:17;;;;;;;4.9;2.9;;;;;;;;;;;;;
2022/10/18 16:04:43;;;;;;;8.1;3.2;;;;;;;;;;;;;
2022/10/18 16:07:08;;;;;;;8.6;3.7;;;;;;;;;;;;;
2022/10/18 16:09:34;;;;;;;7.1;3.5;;;;;;;;;;;;;
2022/10/18 16:11:59;;;;;;;6.1;3.5;;;;;;;;;;;;;
2022/10/18 16:14:24;;;;;;;9.4;3.7;;;;;;;;;;;;;
2022/10/18 16:16:50;;;;;;;10.9;3.6;;;;;;;;;;;;;
2022/10/18 16:19:17;;;;;;;7.2;3.1;;;;;;;;;;;;;
2022/10/18 16:21:41;;;;;;;7;3.2;;;;;;;;;;;;;
2022/10/18 16:24:08;;;;;;;5.9;3.4;;;;;;;;;;;;;
2022/10/18 16:26:33;;;;;;;8.2;3.1;;;;;;;;;;;;;
2022/10/18 16:28:58;;;;;;;10.7;3.7;;;;;;;;;;;;;
2022/10/18 16:31:24;;;;;;;6;2.9;;;;;;;;;;;;;
2022/10/18 16:33:49;;;;;;;7.2;4;;;;;;;;;;;;;
2022/10/18 16:36:14;;;;;;;8.1;3.6;;;;;;;;;;;;;
2022/10/18 16:38:44;;;;;;;8.9;3.5;;;;;;;;;;;;;
2022/10/18 16:41:10;;;;;;;7.3;3.5;;;;;;;;;;;;;
2022/10/18 16:43:35;;;;;;;8.1;3.8;;;;;;;;;;;;;
2022/10/18 16:46:00;;;;;;;9.7;4.1;;;;;;;;;;;;;
2022/10/18 16:48:25;;;;;;;6.7;4;;;;;;;;;;;;;
2022/10/18 16:50:50;;;;;;;7.1;3.7;;;;;;;;;;;;;
2022/10/18 16:53:15;;;;;;;12.3;5.2;;;;;;;;;;;;;
2022/10/18 16:55:42;;;;;;;11.8;5.2;;;;;;;;;;;;;
2022/10/18 16:58:07;;;;;;;7.5;5;;;;;;;;;;;;;
2022/10/18 17:00:33;;;;;;;5.8;4.5;;;;;;;;;;;;;
2022/10/18 17:02:58;;;;;;;7.1;4.5;;;;;;;;;;;;;
2022/10/18 17:05:24;;;;;;;8;5.4;;;;;;;;;;;;;
2022/10/18 17:07:49;;;;;;;11.3;5.2;;;;;;;;;;;;;
2022/10/18 17:10:16;;;;;;;9.1;4.8;;;;;;;;;;;;;
2022/10/18 17:12:41;;;;;;;10.1;5;;;;;;;;;;;;;
2022/10/18 17:15:07;;;;;;;6.3;4.4;;;;;;;;;;;;;
2022/10/18 17:17:32;;;;;;;6.8;4.4;;;;;;;;;;;;;
2022/10/18 17:19:58;;;;;;;10.5;5.9;;;;;;;;;;;;;
2022/10/18 17:22:23;;;;;;;12.2;6.5;;;;;;;;;;;;;
2022/10/18 17:24:48;;;;;;;12.3;6;;;;;;;;;;;;;
2022/10/18 17:27:13;;;;;;;9;5.7;;;;;;;;;;;;;
2022/10/18 17:29:39;;;;;;;9.2;5.5;;;;;;;;;;;;;
2022/10/18 17:32:04;;;;;;;6.9;5.5;;;;;;;;;;;;;
2022/10/18 17:34:29;;;;;;;9.4;5.4;;;;;;;;;;;;;
2022/10/18 17:36:56;;;;;;;14.4;6.3;;;;;;;;;;;;;
2022/10/18 17:39:21;;;;;;;9.1;6;;;;;;;;;;;;;
2022/10/18 17:41:46;;;;;;;12.2;6;;;;;;;;;;;;;
2022/10/18 17:44:11;;;;;;;9.9;6.7;;;;;;;;;;;;;
2022/10/18 17:46:36;;;;;;;10.9;6.5;;;;;;;;;;;;;
2022/10/18 17:49:02;;;;;;;10.3;6.4;;;;;;;;;;;;;
2022/10/18 17:51:27;;;;;;;10;6.7;;;;;;;;;;;;;
2022/10/18 17:53:52;;;;;;;10.6;6;;;;;;;;;;;;;
2022/10/18 17:56:18;;;;;;;10.3;6.1;;;;;;;;;;;;;
2022/10/18 17:58:44;;;;;;;9.5;6;;;;;;;;;;;;;
2022/10/18 18:01:09;;;;;;;12.2;6.8;;;;;;;;;;;;;
2022/10/18 18:03:36;;;;;;;11;6.2;;;;;;;;;;;;;
2022/10/18 18:06:01;;;;;;;7.9;5.3;;;;;;;;;;;;;
2022/10/18 18:08:29;;;;;;;11.6;5.7;;;;;;;;;;;;;
2022/10/18 18:10:54;;;;;;;6.8;4.3;;;;;;;;;;;;;
2022/10/18 18:13:19;;;;;;;8.1;5.1;;;;;;;;;;;;;
2022/10/18 18:15:44;;;;;;;6.4;3.8;;;;;;;;;;;;;
2022/10/18 18:18:10;;;;;;;9.1;3.9;;;;;;;;;;;;;
2022/10/18 18:20:36;;;;;;;7;4.1;;;;;;;;;;;;;
2022/10/18 18:23:02;;;;;;;5.9;4;;;;;;;;;;;;;
2022/10/18 18:25:27;;;;;;;7.4;4.5;;;;;;;;;;;;;
2022/10/18 18:27:52;;;;;;;7.7;4.3;;;;;;;;;;;;;
2022/10/18 18:30:17;;;;;;;6.1;3.6;;;;;;;;;;;;;
2022/10/18 18:32:45;;;;;;;5.6;3.2;;;;;;;;;;;;;
2022/10/18 18:35:10;;;;;;;8.2;3.7;;;;;;;;;;;;;
2022/10/18 18:37:36;;;;;;;7;4.3;;;;;;;;;;;;;
2022/10/18 18:40:01;;;;;;;8;3.5;;;;;;;;;;;;;
2022/10/18 18:42:28;;;;;;;6.5;3.8;;;;;;;;;;;;;
2022/10/18 18:44:54;;;;;;;7.3;4.3;;;;;;;;;;;;;
2022/10/18 18:47:22;;;;;;;10.9;5.2;;;;;;;;;;;;;
2022/10/18 18:49:44;;;;;;;8.8;5.3;;;;;;;;;;;;;
2022/10/18 18:52:11;;;;;;;11.5;5.2;;;;;;;;;;;;;
2022/10/18 18:54:36;;;;;;;6.8;5;;;;;;;;;;;;;
2022/10/18 18:57:04;;;;;;;8.3;5.6;;;;;;;;;;;;;
2022/10/18 18:59:27;;;;;;;15.1;9.2;;;;;;;;;;;;;
2022/10/18 19:01:54;;;;;;;14.9;8.4;;;;;;;;;;;;;
2022/10/18 19:04:19;;;;;;;15.3;9.2;;;;;;;;;;;;;
2022/10/18 19:06:45;;;;;;;13.9;8.3;;;;;;;;;;;;;
2022/10/18 19:09:16;;;;;;;12.1;8;;;;;;;;;;;;;
2022/10/18 19:11:36;;;;;;;13.7;6.8;;;;;;;;;;;;;
2022/10/18 19:14:01;;;;;;;7.5;5.1;;;;;;;;;;;;;
2022/10/18 19:16:27;;;;;;;9.3;5.4;;;;;;;;;;;;;
2022/10/18 19:18:52;;;;;;;7.3;4.9;;;;;;;;;;;;;
2022/10/18 19:21:17;;;;;;;6.5;4.6;;;;;;;;;;;;;
2022/10/18 19:23:43;;;;;;;12.9;6.3;;;;;;;;;;;;;
2022/10/18 19:26:08;;;;;;;9.7;5.1;;;;;;;;;;;;;
2022/10/18 19:28:35;;;;;;;8.4;5.9;;;;;;;;;;;;;
2022/10/18 19:31:00;;;;;;;10.8;6.4;;;;;;;;;;;;;
2022/10/18 19:33:25;;;;;;;9.4;5.7;;;;;;;;;;;;;
2022/10/18 19:35:50;;;;;;;12.1;6.4;;;;;;;;;;;;;
2022/10/18 19:38:15;;;;;;;9.7;5.9;;;;;;;;;;;;;
2022/10/18 19:40:42;;;;;;;8.7;6.1;;;;;;;;;;;;;
2022/10/18 19:43:07;;;;;;;12.6;6.7;;;;;;;;;;;;;
2022/10/18 19:45:33;;;;;;;10.5;6.1;;;;;;;;;;;;;
2022/10/18 19:47:58;;;;;;;13.1;6.1;;;;;;;;;;;;;
2022/10/18 19:50:23;;;;;;;7;4.6;;;;;;;;;;;;;
2022/10/18 19:52:48;;;;;;;8.6;5;;;;;;;;;;;;;
2022/10/18 19:55:17;;;;;;;9.5;6;;;;;;;;;;;;;
2022/10/18 19:57:41;;;;;;;10.2;6.8;;;;;;;;;;;;;
2022/10/18 20:00:09;;;;;;;10.3;6.4;;;;;;;;;;;;;